Mississippi River (Missouri), New Madrid (07024175)

StateMissouriLatestUnknown (634000 cfs)
RiverMississippi RiverRatingObservedEstimated
Updated2021-02-27 16:00 (31 minutes ago)Flood - The river is flooding. Obstacles can be treacherous or deadly. The river should be avoided at this stage for casual trips and definitely for the inexperienced. Trips should be attempted only with protective gear and equipment.Flood(none)(none)
Discharge634000 cfs (median: 1230000 cfs)High - The river is high and potentially dangerous, especially for the young and / or inexperienced. Normal stream obstacles are sometimes difficult to navigate. Extended distances can be attempted, but canoe travel may not be advisable.High(none)(none)
Height20.58 feetGood - Conditions are ideal for a canoe or kayak. Boats typically will drag on fewer than one-quarter of riffles, if at all, and portages are unnecessary or rare. Normal float lengths can be attempted without a problem.Good(none)(none)
TrendRising (rising over 24 hours)Low - River is low but can still be floated. Some riffles are okay but most come with significant dragging and might need a portage. Float lengths should be reduced to accommodate low flow, dragging, and portages.Low(none)(none)
USGSExternal icon USGS Site (External icon Google Maps)Poor - River is too low to float comfortably. Most or all riffles will drag or must be portaged and some obstacles (such as slick shelf rock) cause undue problems. Avoid the river at this stage for casual paddling trips.Poor(none)(none)

Trending Data

Plot Image

Trips for Mississippi River (Missouri), New Madrid (07024175)

DateStartEndDistanceConditionDischargeHeightFishingDetails

A total of 0 rows are displayed.

Condition Descriptions

Fishing Conditions

Fish Species

Notes

Classic Trip List

The classic River Trips application is still available for use. It is updated with the new system using a data retrofit. It is no longer maintained. The original River Trips application is no longer updated (as of 1 Dec 2016) but can be checked for errors or for the condition of the data before it was converted to the new system.

Gauge Data Table

ObservationHeightDischargeMaximum
Discharge
Minimum
Discharge
Mean
Discharge
P05P10P20P25P50
(Median)
P75P80P90P95
2021-02-27 16:00 20.58 634000 1510000 (2019) 345000 (2017) 1070000 463000 641000 1230000 1410000 1470000
2021-02-27 15:00 20.53 633000 1510000 (2019) 345000 (2017) 1070000 463000 641000 1230000 1410000 1470000
2021-02-27 14:00 20.39 628000 1510000 (2019) 345000 (2017) 1070000 463000 641000 1230000 1410000 1470000
2021-02-27 13:00 20.37 628000 1510000 (2019) 345000 (2017) 1070000 463000 641000 1230000 1410000 1470000
2021-02-27 12:00 20.20 623000 1510000 (2019) 345000 (2017) 1070000 463000 641000 1230000 1410000 1470000
2021-02-27 11:00 20.09 619000 1510000 (2019) 345000 (2017) 1070000 463000 641000 1230000 1410000 1470000
2021-02-27 10:00 20.04 618000 1510000 (2019) 345000 (2017) 1070000 463000 641000 1230000 1410000 1470000
2021-02-27 09:00 19.95 615000 1510000 (2019) 345000 (2017) 1070000 463000 641000 1230000 1410000 1470000
2021-02-27 08:00 19.85 612000 1510000 (2019) 345000 (2017) 1070000 463000 641000 1230000 1410000 1470000
2021-02-27 07:00 19.75 609000 1510000 (2019) 345000 (2017) 1070000 463000 641000 1230000 1410000 1470000
2021-02-27 06:00 19.68 607000 1510000 (2019) 345000 (2017) 1070000 463000 641000 1230000 1410000 1470000
2021-02-27 05:00 19.59 604000 1510000 (2019) 345000 (2017) 1070000 463000 641000 1230000 1410000 1470000
2021-02-27 04:00 19.47 601000 1510000 (2019) 345000 (2017) 1070000 463000 641000 1230000 1410000 1470000
2021-02-27 03:00 19.40 599000 1510000 (2019) 345000 (2017) 1070000 463000 641000 1230000 1410000 1470000
2021-02-27 02:00 19.28 595000 1510000 (2019) 345000 (2017) 1070000 463000 641000 1230000 1410000 1470000
2021-02-27 01:00 19.20 593000 1510000 (2019) 345000 (2017) 1070000 463000 641000 1230000 1410000 1470000
2021-02-27 00:00 19.06 589000 1510000 (2019) 345000 (2017) 1070000 463000 641000 1230000 1410000 1470000
2021-02-26 23:00 19.02 587000 1500000 (2019) 366000 (2017) 1060000 471000 628000 1260000 1380000 1450000
2021-02-26 22:00 18.94 585000 1500000 (2019) 366000 (2017) 1060000 471000 628000 1260000 1380000 1450000
2021-02-26 21:00 18.84 582000 1500000 (2019) 366000 (2017) 1060000 471000 628000 1260000 1380000 1450000
2021-02-26 20:00 18.78 581000 1500000 (2019) 366000 (2017) 1060000 471000 628000 1260000 1380000 1450000
2021-02-26 19:00 18.69 578000 1500000 (2019) 366000 (2017) 1060000 471000 628000 1260000 1380000 1450000
2021-02-26 18:00 18.63 577000 1500000 (2019) 366000 (2017) 1060000 471000 628000 1260000 1380000 1450000
2021-02-26 17:00 18.55 575000 1500000 (2019) 366000 (2017) 1060000 471000 628000 1260000 1380000 1450000
2021-02-26 16:00 18.48 573000 1500000 (2019) 366000 (2017) 1060000 471000 628000 1260000 1380000 1450000
2021-02-26 15:00 18.41 571000 1500000 (2019) 366000 (2017) 1060000 471000 628000 1260000 1380000 1450000
2021-02-26 14:00 18.34 569000 1500000 (2019) 366000 (2017) 1060000 471000 628000 1260000 1380000 1450000
2021-02-26 13:00 18.23 566000 1500000 (2019) 366000 (2017) 1060000 471000 628000 1260000 1380000 1450000
2021-02-26 12:00 18.19 565000 1500000 (2019) 366000 (2017) 1060000 471000 628000 1260000 1380000 1450000
2021-02-26 11:00 18.06 562000 1500000 (2019) 366000 (2017) 1060000 471000 628000 1260000 1380000 1450000
2021-02-26 10:00 18.03 561000 1500000 (2019) 366000 (2017) 1060000 471000 628000 1260000 1380000 1450000
2021-02-26 09:00 17.87 557000 1500000 (2019) 366000 (2017) 1060000 471000 628000 1260000 1380000 1450000
2021-02-26 08:00 17.89 557000 1500000 (2019) 366000 (2017) 1060000 471000 628000 1260000 1380000 1450000
2021-02-26 07:00 17.87 557000 1500000 (2019) 366000 (2017) 1060000 471000 628000 1260000 1380000 1450000
2021-02-26 06:00 17.75 553000 1500000 (2019) 366000 (2017) 1060000 471000 628000 1260000 1380000 1450000
2021-02-26 05:00 17.71 552000 1500000 (2019) 366000 (2017) 1060000 471000 628000 1260000 1380000 1450000
2021-02-26 04:00 17.67 551000 1500000 (2019) 366000 (2017) 1060000 471000 628000 1260000 1380000 1450000
2021-02-26 03:00 17.58 549000 1500000 (2019) 366000 (2017) 1060000 471000 628000 1260000 1380000 1450000
2021-02-26 02:00 17.54 548000 1500000 (2019) 366000 (2017) 1060000 471000 628000 1260000 1380000 1450000
2021-02-26 01:00 17.42 545000 1500000 (2019) 366000 (2017) 1060000 471000 628000 1260000 1380000 1450000
2021-02-26 00:00 17.37 543000 1500000 (2019) 366000 (2017) 1060000 471000 628000 1260000 1380000 1450000
2021-02-25 23:00 17.34 543000 1480000 (2019) 380000 (2017) 1030000 472000 610000 1190000 1380000 1440000
2021-02-25 22:00 17.27 541000 1480000 (2019) 380000 (2017) 1030000 472000 610000 1190000 1380000 1440000
2021-02-25 21:00 17.23 540000 1480000 (2019) 380000 (2017) 1030000 472000 610000 1190000 1380000 1440000
2021-02-25 20:00 17.12 537000 1480000 (2019) 380000 (2017) 1030000 472000 610000 1190000 1380000 1440000
2021-02-25 19:00 17.09 536000 1480000 (2019) 380000 (2017) 1030000 472000 610000 1190000 1380000 1440000
2021-02-25 18:00 17.05 535000 1480000 (2019) 380000 (2017) 1030000 472000 610000 1190000 1380000 1440000
2021-02-25 17:00 16.96 533000 1480000 (2019) 380000 (2017) 1030000 472000 610000 1190000 1380000 1440000
2021-02-25 16:00 16.94 532000 1480000 (2019) 380000 (2017) 1030000 472000 610000 1190000 1380000 1440000
2021-02-25 15:00 16.86 530000 1480000 (2019) 380000 (2017) 1030000 472000 610000 1190000 1380000 1440000
2021-02-25 14:00 16.76 528000 1480000 (2019) 380000 (2017) 1030000 472000 610000 1190000 1380000 1440000
2021-02-25 13:00 16.68 526000 1480000 (2019) 380000 (2017) 1030000 472000 610000 1190000 1380000 1440000
2021-02-25 12:00 16.66 525000 1480000 (2019) 380000 (2017) 1030000 472000 610000 1190000 1380000 1440000
2021-02-25 11:00 16.60 524000 1480000 (2019) 380000 (2017) 1030000 472000 610000 1190000 1380000 1440000
2021-02-25 10:00 16.49 521000 1480000 (2019) 380000 (2017) 1030000 472000 610000 1190000 1380000 1440000
2021-02-25 09:00 16.47 520000 1480000 (2019) 380000 (2017) 1030000 472000 610000 1190000 1380000 1440000
2021-02-25 08:00 16.41 519000 1480000 (2019) 380000 (2017) 1030000 472000 610000 1190000 1380000 1440000
2021-02-25 07:00 16.37 518000 1480000 (2019) 380000 (2017) 1030000 472000 610000 1190000 1380000 1440000
2021-02-25 06:00 16.29 516000 1480000 (2019) 380000 (2017) 1030000 472000 610000 1190000 1380000 1440000
2021-02-25 05:00 16.23 514000 1480000 (2019) 380000 (2017) 1030000 472000 610000 1190000 1380000 1440000
2021-02-25 04:00 16.16 512000 1480000 (2019) 380000 (2017) 1030000 472000 610000 1190000 1380000 1440000
2021-02-25 03:00 16.07 510000 1480000 (2019) 380000 (2017) 1030000 472000 610000 1190000 1380000 1440000
2021-02-25 02:00 16.02 509000 1480000 (2019) 380000 (2017) 1030000 472000 610000 1190000 1380000 1440000
2021-02-25 01:00 15.95 507000 1480000 (2019) 380000 (2017) 1030000 472000 610000 1190000 1380000 1440000
2021-02-25 00:00 15.88 505000 1480000 (2019) 380000 (2017) 1030000 472000 610000 1190000 1380000 1440000
2021-02-24 23:00 15.85 505000 1460000 (2019) 401000 (2017) 1010000 480000 598000 1100000 1380000 1430000
2021-02-24 22:00 15.78 503000 1460000 (2019) 401000 (2017) 1010000 480000 598000 1100000 1380000 1430000
2021-02-24 21:00 15.70 501000 1460000 (2019) 401000 (2017) 1010000 480000 598000 1100000 1380000 1430000
2021-02-24 20:00 15.62 499000 1460000 (2019) 401000 (2017) 1010000 480000 598000 1100000 1380000 1430000
2021-02-24 19:00 15.58 498000 1460000 (2019) 401000 (2017) 1010000 480000 598000 1100000 1380000 1430000
2021-02-24 18:00 15.49 496000 1460000 (2019) 401000 (2017) 1010000 480000 598000 1100000 1380000 1430000
2021-02-24 17:00 15.48 495000 1460000 (2019) 401000 (2017) 1010000 480000 598000 1100000 1380000 1430000
2021-02-24 16:00 15.42 494000 1460000 (2019) 401000 (2017) 1010000 480000 598000 1100000 1380000 1430000
2021-02-24 15:00 15.33 492000 1460000 (2019) 401000 (2017) 1010000 480000 598000 1100000 1380000 1430000
2021-02-24 14:00 15.21 489000 1460000 (2019) 401000 (2017) 1010000 480000 598000 1100000 1380000 1430000
2021-02-24 13:00 15.20 488000 1460000 (2019) 401000 (2017) 1010000 480000 598000 1100000 1380000 1430000
2021-02-24 12:00 15.12 486000 1460000 (2019) 401000 (2017) 1010000 480000 598000 1100000 1380000 1430000
2021-02-24 11:00 15.04 485000 1460000 (2019) 401000 (2017) 1010000 480000 598000 1100000 1380000 1430000
2021-02-24 10:00 15.00 484000 1460000 (2019) 401000 (2017) 1010000 480000 598000 1100000 1380000 1430000
2021-02-24 09:00 14.98 483000 1460000 (2019) 401000 (2017) 1010000 480000 598000 1100000 1380000 1430000
2021-02-24 08:00 14.92 482000 1460000 (2019) 401000 (2017) 1010000 480000 598000 1100000 1380000 1430000
2021-02-24 07:00 14.88 481000 1460000 (2019) 401000 (2017) 1010000 480000 598000 1100000 1380000 1430000
2021-02-24 06:00 14.84 480000 1460000 (2019) 401000 (2017) 1010000 480000 598000 1100000 1380000 1430000
2021-02-24 05:00 14.80 479000 1460000 (2019) 401000 (2017) 1010000 480000 598000 1100000 1380000 1430000
2021-02-24 04:00 14.75 477000 1460000 (2019) 401000 (2017) 1010000 480000 598000 1100000 1380000 1430000
2021-02-24 03:00 14.76 478000 1460000 (2019) 401000 (2017) 1010000 480000 598000 1100000 1380000 1430000
2021-02-24 02:00 14.75 477000 1460000 (2019) 401000 (2017) 1010000 480000 598000 1100000 1380000 1430000
2021-02-24 01:00 14.71 476000 1460000 (2019) 401000 (2017) 1010000 480000 598000 1100000 1380000 1430000
2021-02-24 00:00 14.68 476000 1460000 (2019) 401000 (2017) 1010000 480000 598000 1100000 1380000 1430000
2021-02-23 23:00 14.70 476000 1450000 (2019) 423000 (2017) 990000 492000 596000 1020000 1370000 1420000
2021-02-23 22:00 14.73 477000 1450000 (2019) 423000 (2017) 990000 492000 596000 1020000 1370000 1420000
2021-02-23 21:00 14.68 476000 1450000 (2019) 423000 (2017) 990000 492000 596000 1020000 1370000 1420000
2021-02-23 20:00 14.69 476000 1450000 (2019) 423000 (2017) 990000 492000 596000 1020000 1370000 1420000
2021-02-23 19:00 14.66 475000 1450000 (2019) 423000 (2017) 990000 492000 596000 1020000 1370000 1420000
2021-02-23 18:00 14.68 476000 1450000 (2019) 423000 (2017) 990000 492000 596000 1020000 1370000 1420000
2021-02-23 17:00 14.66 475000 1450000 (2019) 423000 (2017) 990000 492000 596000 1020000 1370000 1420000
2021-02-23 16:00 14.65 475000 1450000 (2019) 423000 (2017) 990000 492000 596000 1020000 1370000 1420000
2021-02-23 15:00 14.63 474000 1450000 (2019) 423000 (2017) 990000 492000 596000 1020000 1370000 1420000
2021-02-23 14:00 14.54 472000 1450000 (2019) 423000 (2017) 990000 492000 596000 1020000 1370000 1420000
2021-02-23 13:00 14.60 474000 1450000 (2019) 423000 (2017) 990000 492000 596000 1020000 1370000 1420000
2021-02-23 12:00 14.57 473000 1450000 (2019) 423000 (2017) 990000 492000 596000 1020000 1370000 1420000
2021-02-23 11:00 14.55 473000 1450000 (2019) 423000 (2017) 990000 492000 596000 1020000 1370000 1420000
2021-02-23 10:00 14.50 471000 1450000 (2019) 423000 (2017) 990000 492000 596000 1020000 1370000 1420000
2021-02-23 09:00 14.53 472000 1450000 (2019) 423000 (2017) 990000 492000 596000 1020000 1370000 1420000
2021-02-23 08:00 14.51 472000 1450000 (2019) 423000 (2017) 990000 492000 596000 1020000 1370000 1420000
2021-02-23 07:00 14.55 473000 1450000 (2019) 423000 (2017) 990000 492000 596000 1020000 1370000 1420000
2021-02-23 06:00 14.48 471000 1450000 (2019) 423000 (2017) 990000 492000 596000 1020000 1370000 1420000
2021-02-23 05:00 14.47 471000 1450000 (2019) 423000 (2017) 990000 492000 596000 1020000 1370000 1420000
2021-02-23 04:00 14.45 470000 1450000 (2019) 423000 (2017) 990000 492000 596000 1020000 1370000 1420000
2021-02-23 03:00 14.48 471000 1450000 (2019) 423000 (2017) 990000 492000 596000 1020000 1370000 1420000
2021-02-23 02:00 14.44 470000 1450000 (2019) 423000 (2017) 990000 492000 596000 1020000 1370000 1420000
2021-02-23 01:00 14.44 470000 1450000 (2019) 423000 (2017) 990000 492000 596000 1020000 1370000 1420000
2021-02-23 00:00 14.43 470000 1450000 (2019) 423000 (2017) 990000 492000 596000 1020000 1370000 1420000
2021-02-22 23:00 14.45 470000 1440000 (2019) 448000 (2017) 1030000 448000 573000 1120000 1400000 1440000
2021-02-22 22:00 14.42 469000 1440000 (2019) 448000 (2017) 1030000 448000 573000 1120000 1400000 1440000
2021-02-22 21:00 14.42 469000 1440000 (2019) 448000 (2017) 1030000 448000 573000 1120000 1400000 1440000
2021-02-22 20:00 14.42 469000 1440000 (2019) 448000 (2017) 1030000 448000 573000 1120000 1400000 1440000
2021-02-22 19:00 14.40 469000 1440000 (2019) 448000 (2017) 1030000 448000 573000 1120000 1400000 1440000
2021-02-22 18:00 14.37 468000 1440000 (2019) 448000 (2017) 1030000 448000 573000 1120000 1400000 1440000
2021-02-22 17:00 14.38 468000 1440000 (2019) 448000 (2017) 1030000 448000 573000 1120000 1400000 1440000
2021-02-22 16:00 14.43 470000 1440000 (2019) 448000 (2017) 1030000 448000 573000 1120000 1400000 1440000
2021-02-22 15:00 14.41 469000 1440000 (2019) 448000 (2017) 1030000 448000 573000 1120000 1400000 1440000
2021-02-22 14:00 14.31 467000 1440000 (2019) 448000 (2017) 1030000 448000 573000 1120000 1400000 1440000
2021-02-22 13:00 14.31 467000 1440000 (2019) 448000 (2017) 1030000 448000 573000 1120000 1400000 1440000
2021-02-22 12:00 14.33 467000 1440000 (2019) 448000 (2017) 1030000 448000 573000 1120000 1400000 1440000
2021-02-22 11:00 14.33 467000 1440000 (2019) 448000 (2017) 1030000 448000 573000 1120000 1400000 1440000
2021-02-22 10:00 14.32 467000 1440000 (2019) 448000 (2017) 1030000 448000 573000 1120000 1400000 1440000
2021-02-22 09:00 14.33 467000 1440000 (2019) 448000 (2017) 1030000 448000 573000 1120000 1400000 1440000
2021-02-22 08:00 14.30 467000 1440000 (2019) 448000 (2017) 1030000 448000 573000 1120000 1400000 1440000
2021-02-22 07:00 14.36 468000 1440000 (2019) 448000 (2017) 1030000 448000 573000 1120000 1400000 1440000
2021-02-22 06:00 14.36 468000 1440000 (2019) 448000 (2017) 1030000 448000 573000 1120000 1400000 1440000
2021-02-22 05:00 14.36 468000 1440000 (2019) 448000 (2017) 1030000 448000 573000 1120000 1400000 1440000
2021-02-22 04:00 14.31 467000 1440000 (2019) 448000 (2017) 1030000 448000 573000 1120000 1400000 1440000
2021-02-22 03:00 14.27 466000 1440000 (2019) 448000 (2017) 1030000 448000 573000 1120000 1400000 1440000
2021-02-22 02:00 14.33 467000 1440000 (2019) 448000 (2017) 1030000 448000 573000 1120000 1400000 1440000
2021-02-22 01:00 14.26 466000 1440000 (2019) 448000 (2017) 1030000 448000 573000 1120000 1400000 1440000
2021-02-22 00:00 14.27 466000 1440000 (2019) 448000 (2017) 1030000 448000 573000 1120000 1400000 1440000
2021-02-21 23:00 14.25 465000 1420000 (2019) 469000 (2017) 1020000 469000 577000 1100000 1390000 1420000
2021-02-21 22:00 14.23 465000 1420000 (2019) 469000 (2017) 1020000 469000 577000 1100000 1390000 1420000
2021-02-21 21:00 14.25 465000 1420000 (2019) 469000 (2017) 1020000 469000 577000 1100000 1390000 1420000
2021-02-21 20:00 14.30 467000 1420000 (2019) 469000 (2017) 1020000 469000 577000 1100000 1390000 1420000
2021-02-21 19:00 14.26 466000 1420000 (2019) 469000 (2017) 1020000 469000 577000 1100000 1390000 1420000
2021-02-21 18:00 14.27 466000 1420000 (2019) 469000 (2017) 1020000 469000 577000 1100000 1390000 1420000
2021-02-21 17:00 14.27 466000 1420000 (2019) 469000 (2017) 1020000 469000 577000 1100000 1390000 1420000
2021-02-21 16:00 14.26 466000 1420000 (2019) 469000 (2017) 1020000 469000 577000 1100000 1390000 1420000
2021-02-21 15:00 14.25 465000 1420000 (2019) 469000 (2017) 1020000 469000 577000 1100000 1390000 1420000
2021-02-21 14:00 14.26 466000 1420000 (2019) 469000 (2017) 1020000 469000 577000 1100000 1390000 1420000
2021-02-21 13:00 14.28 466000 1420000 (2019) 469000 (2017) 1020000 469000 577000 1100000 1390000 1420000
2021-02-21 12:00 14.26 466000 1420000 (2019) 469000 (2017) 1020000 469000 577000 1100000 1390000 1420000
2021-02-21 11:00 14.17 463000 1420000 (2019) 469000 (2017) 1020000 469000 577000 1100000 1390000 1420000
2021-02-21 10:00 14.25 465000 1420000 (2019) 469000 (2017) 1020000 469000 577000 1100000 1390000 1420000
2021-02-21 09:00 14.24 465000 1420000 (2019) 469000 (2017) 1020000 469000 577000 1100000 1390000 1420000
2021-02-21 08:00 14.21 464000 1420000 (2019) 469000 (2017) 1020000 469000 577000 1100000 1390000 1420000
2021-02-21 07:00 14.19 464000 1420000 (2019) 469000 (2017) 1020000 469000 577000 1100000 1390000 1420000
2021-02-21 06:00 14.17 463000 1420000 (2019) 469000 (2017) 1020000 469000 577000 1100000 1390000 1420000
2021-02-21 05:00 14.17 463000 1420000 (2019) 469000 (2017) 1020000 469000 577000 1100000 1390000 1420000
2021-02-21 04:00 14.16 463000 1420000 (2019) 469000 (2017) 1020000 469000 577000 1100000 1390000 1420000
2021-02-21 03:00 14.13 462000 1420000 (2019) 469000 (2017) 1020000 469000 577000 1100000 1390000 1420000
2021-02-21 02:00 14.15 463000 1420000 (2019) 469000 (2017) 1020000 469000 577000 1100000 1390000 1420000
2021-02-21 01:00 14.15 463000 1420000 (2019) 469000 (2017) 1020000 469000 577000 1100000 1390000 1420000
2021-02-21 00:00 14.05 461000 1420000 (2019) 469000 (2017) 1020000 469000 577000 1100000 1390000 1420000
2021-02-20 23:00 14.19 464000 1400000 (2019) 480000 (2017) 1010000 480000 579000 1080000 1370000 1400000
2021-02-20 20:00 14.08 461000 1400000 (2019) 480000 (2017) 1010000 480000 579000 1080000 1370000 1400000
2021-02-20 19:00 14.08 461000 1400000 (2019) 480000 (2017) 1010000 480000 579000 1080000 1370000 1400000
2021-02-20 18:00 14.03 460000 1400000 (2019) 480000 (2017) 1010000 480000 579000 1080000 1370000 1400000
2021-02-20 17:00 14.08 461000 1400000 (2019) 480000 (2017) 1010000 480000 579000 1080000 1370000 1400000
2021-02-20 16:00 14.02 460000 1400000 (2019) 480000 (2017) 1010000 480000 579000 1080000 1370000 1400000
2021-02-20 14:00 14.06 461000 1400000 (2019) 480000 (2017) 1010000 480000 579000 1080000 1370000 1400000
2021-02-20 13:00 13.96 458000 1400000 (2019) 480000 (2017) 1010000 480000 579000 1080000 1370000 1400000
2021-02-20 12:00 13.93 458000 1400000 (2019) 480000 (2017) 1010000 480000 579000 1080000 1370000 1400000
2021-02-20 11:00 14.01 460000 1400000 (2019) 480000 (2017) 1010000 480000 579000 1080000 1370000 1400000
2021-02-20 10:00 13.98 459000 1400000 (2019) 480000 (2017) 1010000 480000 579000 1080000 1370000 1400000
2021-02-20 09:00 13.96 458000 1400000 (2019) 480000 (2017) 1010000 480000 579000 1080000 1370000 1400000
2021-02-20 08:00 13.95 458000 1400000 (2019) 480000 (2017) 1010000 480000 579000 1080000 1370000 1400000
2021-02-20 07:00 13.84 455000 1400000 (2019) 480000 (2017) 1010000 480000 579000 1080000 1370000 1400000
2021-02-20 06:00 13.83 455000 1400000 (2019) 480000 (2017) 1010000 480000 579000 1080000 1370000 1400000
2021-02-20 05:00 13.70 452000 1400000 (2019) 480000 (2017) 1010000 480000 579000 1080000 1370000 1400000
2021-02-20 04:00 13.69 452000 1400000 (2019) 480000 (2017) 1010000 480000 579000 1080000 1370000 1400000
2021-02-20 03:00 13.68 452000 1400000 (2019) 480000 (2017) 1010000 480000 579000 1080000 1370000 1400000
2021-02-20 02:00 13.67 451000 1400000 (2019) 480000 (2017) 1010000 480000 579000 1080000 1370000 1400000
2021-02-20 01:00 13.71 452000 1400000 (2019) 480000 (2017) 1010000 480000 579000 1080000 1370000 1400000
2021-02-20 00:00 13.67 451000 1400000 (2019) 480000 (2017) 1010000 480000 579000 1080000 1370000 1400000

A total of 182 rows are displayed for years 2017 through 2020.